createdAt,value
2017-08-07T00:00:31.474Z,76.30
2017-08-07T00:02:58.965Z,75.50
2017-08-07T00:05:26.460Z,74.40
2017-08-07T00:07:53.956Z,76.30
2017-08-07T00:10:21.468Z,77.20
2017-08-07T00:12:48.967Z,76.90
2017-08-07T00:15:16.446Z,76.70
2017-08-07T00:17:44.712Z,76.00
2017-08-07T00:20:12.197Z,75.00
2017-08-07T00:22:40.459Z,73.30
2017-08-07T00:25:08.726Z,73.50
2017-08-07T00:27:36.216Z,73.20
2017-08-07T00:30:03.708Z,72.90
2017-08-07T00:32:31.201Z,72.60
2017-08-07T00:34:58.678Z,72.40
2017-08-07T00:37:26.154Z,72.80
2017-08-07T00:39:53.655Z,75.20
2017-08-07T00:42:21.145Z,76.50
2017-08-07T00:44:48.637Z,76.60
2017-08-07T00:47:16.123Z,74.10
2017-08-07T00:49:43.602Z,73.00
2017-08-07T00:52:11.085Z,72.60
2017-08-07T00:54:38.579Z,75.60
2017-08-07T00:57:06.064Z,77.80
2017-08-07T00:59:33.567Z,77.10
2017-08-07T01:02:01.773Z,77.50
2017-08-07T01:04:29.258Z,75.70
2017-08-07T01:06:56.759Z,76.20
2017-08-07T01:09:24.246Z,76.00
2017-08-07T01:11:51.734Z,73.70
2017-08-07T01:14:19.213Z,74.00
2017-08-07T01:16:46.722Z,74.50
2017-08-07T01:19:15.074Z,73.40
2017-08-07T01:21:42.558Z,72.70
2017-08-07T01:24:10.063Z,75.10
2017-08-07T01:26:37.552Z,73.60
2017-08-07T01:29:05.038Z,73.00
2017-08-07T01:31:32.543Z,73.10
2017-08-07T01:34:00.023Z,72.40
2017-08-07T01:36:27.524Z,74.00
2017-08-07T01:38:55.026Z,74.50
2017-08-07T01:41:22.518Z,75.10
2017-08-07T01:43:50.760Z,73.20
2017-08-07T01:46:18.262Z,73.10
2017-08-07T01:48:45.965Z,72.80
2017-08-07T01:51:13.450Z,72.40
2017-08-07T01:53:40.946Z,73.60
2017-08-07T01:56:08.441Z,72.50
2017-08-07T01:58:35.943Z,72.30
2017-08-07T02:01:03.564Z,75.70
2017-08-07T02:03:31.051Z,73.90
2017-08-07T02:05:58.543Z,74.10
2017-08-07T02:08:26.244Z,73.40
2017-08-07T02:10:53.918Z,72.60
2017-08-07T02:13:21.572Z,72.90
2017-08-07T02:15:49.200Z,73.40
2017-08-07T02:18:16.701Z,72.80
2017-08-07T02:20:44.242Z,72.60
2017-08-07T02:23:11.914Z,71.70
2017-08-07T02:25:39.615Z,72.10
2017-08-07T02:28:07.224Z,72.40
2017-08-07T02:30:35.058Z,71.80
2017-08-07T02:33:03.064Z,71.70
2017-08-07T02:35:30.845Z,71.50
2017-08-07T02:37:58.364Z,71.60
2017-08-07T02:40:25.853Z,71.60
2017-08-07T02:42:53.341Z,71.60
2017-08-07T02:45:20.832Z,72.50
2017-08-07T02:47:48.322Z,74.90
2017-08-07T02:50:15.817Z,78.00
2017-08-07T02:52:43.321Z,79.70
2017-08-07T02:55:10.816Z,79.20
2017-08-07T02:57:38.297Z,80.00
2017-08-07T03:00:05.802Z,79.90
2017-08-07T03:02:33.286Z,78.10
2017-08-07T03:05:00.787Z,78.50
2017-08-07T03:07:29.071Z,78.70
2017-08-07T03:09:57.340Z,75.00
2017-08-07T03:12:24.824Z,74.90
2017-08-07T03:14:53.091Z,78.10
2017-08-07T03:17:20.569Z,78.00
2017-08-07T03:19:48.058Z,80.40
2017-08-07T03:22:15.550Z,82.10
2017-08-07T03:24:43.038Z,82.60
2017-08-07T03:27:10.523Z,82.30
2017-08-07T03:29:38.030Z,80.50
2017-08-07T03:32:05.515Z,79.80
2017-08-07T03:34:32.998Z,77.80
2017-08-07T03:37:00.504Z,75.70
2017-08-07T03:39:28.005Z,75.80
2017-08-07T03:41:55.504Z,75.40
2017-08-07T03:44:23.011Z,75.10
2017-08-07T03:46:50.511Z,74.80
2017-08-07T03:49:17.990Z,75.60
2017-08-07T03:51:45.482Z,76.80
2017-08-07T03:54:12.972Z,75.10
2017-08-07T03:56:40.454Z,74.50
2017-08-07T03:59:07.950Z,74.00
2017-08-07T04:01:35.433Z,72.40
2017-08-07T04:04:02.919Z,71.30
2017-08-07T04:06:30.408Z,73.00
2017-08-07T04:08:57.894Z,75.60
2017-08-07T04:11:25.384Z,74.30
2017-08-07T04:13:52.879Z,75.40
2017-08-07T04:16:20.376Z,74.10
2017-08-07T04:18:47.871Z,72.60
2017-08-07T04:21:15.364Z,71.80
2017-08-07T04:23:42.841Z,71.30
2017-08-07T04:26:10.324Z,72.60
2017-08-07T04:28:37.821Z,72.50
2017-08-07T04:31:05.302Z,71.20
2017-08-07T04:33:32.786Z,72.30
2017-08-07T04:36:01.051Z,75.80
2017-08-07T04:38:29.299Z,74.10
2017-08-07T04:40:56.778Z,73.30
2017-08-07T04:43:24.275Z,72.00
2017-08-07T04:45:51.759Z,71.60
2017-08-07T04:48:19.249Z,73.30
2017-08-07T04:50:46.754Z,71.70
2017-08-07T04:53:14.229Z,72.90
2017-08-07T04:55:41.722Z,71.30
2017-08-07T04:58:09.218Z,73.80
2017-08-07T05:00:36.689Z,75.90
2017-08-07T05:03:04.913Z,78.30
2017-08-07T05:05:32.695Z,76.70
2017-08-07T05:08:00.938Z,73.00
2017-08-07T05:10:28.424Z,73.20
2017-08-07T05:12:55.937Z,71.40
2017-08-07T05:15:24.484Z,71.30
2017-08-07T05:17:52.739Z,73.20
2017-08-07T05:20:20.236Z,72.90
2017-08-07T05:22:47.723Z,73.50
2017-08-07T05:25:15.202Z,74.40
2017-08-07T05:27:42.695Z,72.80
2017-08-07T05:30:10.942Z,73.10
2017-08-07T05:32:38.422Z,73.00
2017-08-07T05:35:06.687Z,68.20
2017-08-07T05:37:34.171Z,68.10
2017-08-07T05:40:01.659Z,69.40
2017-08-07T05:42:29.155Z,68.90
2017-08-07T05:44:56.638Z,70.10
2017-08-07T05:47:24.882Z,72.10
2017-08-07T05:49:52.371Z,71.60
2017-08-07T05:52:20.622Z,71.00
2017-08-07T05:54:48.089Z,71.00
2017-08-07T05:57:15.591Z,69.80
2017-08-07T05:59:43.073Z,70.30
2017-08-07T06:02:10.560Z,74.70
2017-08-07T06:04:38.113Z,76.00
2017-08-07T06:07:05.598Z,75.60
2017-08-07T06:09:33.080Z,75.20
2017-08-07T06:12:00.570Z,72.30
2017-08-07T06:14:28.589Z,74.20
2017-08-07T06:16:57.754Z,75.10
2017-08-07T06:19:25.834Z,74.90
2017-08-07T06:21:56.930Z,75.50
2017-08-07T06:24:24.580Z,73.90
2017-08-07T06:26:53.098Z,71.90
2017-08-07T06:29:20.757Z,71.80
2017-08-07T06:31:48.834Z,72.00
2017-08-07T06:34:16.347Z,74.00
2017-08-07T06:36:44.605Z,73.20
2017-08-07T06:39:12.099Z,72.10
2017-08-07T06:41:39.602Z,71.50
2017-08-07T06:44:07.102Z,72.00
2017-08-07T06:46:35.349Z,70.20
2017-08-07T06:49:02.851Z,70.00
2017-08-07T06:51:30.351Z,69.10
2017-08-07T06:53:57.835Z,68.20
2017-08-07T06:56:25.363Z,68.90
2017-08-07T06:58:52.845Z,67.70
2017-08-07T07:01:20.322Z,66.20
2017-08-07T07:03:47.833Z,65.30
2017-08-07T07:06:15.537Z,65.30
2017-08-07T07:08:43.104Z,65.70
2017-08-07T07:11:11.280Z,64.80
2017-08-07T07:13:39.003Z,64.20
2017-08-07T07:16:07.270Z,65.40
2017-08-07T07:18:35.170Z,66.50
2017-08-07T07:21:02.934Z,66.90
2017-08-07T07:23:30.952Z,67.00
2017-08-07T07:25:59.081Z,66.00
2017-08-07T07:28:26.655Z,66.80
2017-08-07T07:30:54.696Z,68.30
2017-08-07T07:33:22.470Z,66.70
2017-08-07T07:35:49.942Z,65.50
2017-08-07T07:38:17.785Z,64.50
2017-08-07T07:40:45.552Z,64.70
2017-08-07T07:43:13.358Z,64.80
2017-08-07T07:45:41.054Z,64.00
2017-08-07T07:48:09.021Z,64.20
2017-08-07T07:50:37.575Z,65.00
2017-08-07T07:53:05.331Z,63.90
2017-08-07T07:55:33.399Z,64.00
2017-08-07T07:58:01.203Z,65.70
2017-08-07T08:00:28.933Z,65.90
2017-08-07T08:02:56.859Z,66.60
2017-08-07T08:05:24.888Z,65.30
2017-08-07T08:07:52.589Z,64.30
2017-08-07T08:10:20.583Z,63.80
2017-08-07T08:12:48.652Z,64.20
2017-08-07T08:15:17.063Z,63.90
2017-08-07T08:17:45.308Z,63.70
2017-08-07T08:20:13.069Z,63.50
2017-08-07T08:22:40.666Z,64.50
2017-08-07T08:25:08.318Z,64.10
2017-08-07T08:27:35.841Z,64.00
2017-08-07T08:30:03.624Z,64.70
2017-08-07T08:32:31.392Z,64.60
2017-08-07T08:34:59.272Z,64.70
2017-08-07T08:37:27.262Z,65.80
2017-08-07T08:39:55.280Z,65.60
2017-08-07T08:42:22.960Z,66.30
2017-08-07T08:44:50.799Z,65.90
2017-08-07T08:47:18.468Z,66.80
2017-08-07T08:49:46.394Z,65.40
2017-08-07T08:52:14.570Z,66.00
2017-08-07T08:54:42.608Z,66.80
2017-08-07T08:57:10.253Z,67.10
2017-08-07T08:59:38.128Z,65.60
2017-08-07T09:02:05.704Z,65.60
2017-08-07T09:04:42.889Z,65.90
2017-08-07T09:07:20.773Z,65.60
2017-08-07T09:10:04.703Z,65.30
2017-08-07T09:12:46.056Z,65.60
2017-08-07T09:15:23.423Z,66.30
2017-08-07T09:17:56.677Z,65.30
2017-08-07T09:20:24.867Z,64.60
2017-08-07T09:22:53.361Z,65.00
2017-08-07T09:25:21.545Z,64.20
2017-08-07T09:27:50.083Z,63.50
2017-08-07T09:30:18.315Z,65.10
2017-08-07T09:32:46.559Z,64.90
2017-08-07T09:35:18.303Z,63.80
2017-08-07T09:37:46.783Z,63.30
2017-08-07T09:40:15.401Z,63.70
2017-08-07T09:42:43.177Z,63.70
2017-08-07T09:45:14.218Z,64.40
2017-08-07T09:47:42.814Z,64.60
2017-08-07T09:50:11.236Z,63.70
2017-08-07T09:52:39.255Z,63.00
2017-08-07T09:55:09.376Z,60.80
2017-08-07T09:57:39.295Z,58.40
2017-08-07T10:00:07.254Z,58.30
2017-08-07T10:02:35.533Z,57.60
2017-08-07T10:05:04.311Z,55.70
2017-08-07T10:07:33.813Z,51.90
2017-08-07T10:10:01.820Z,51.80
2017-08-07T10:12:32.076Z,52.00
2017-08-07T10:15:00.645Z,51.80
2017-08-07T10:17:28.528Z,54.50
2017-08-07T10:19:58.074Z,55.40
2017-08-07T10:22:26.066Z,56.70
2017-08-07T10:24:54.339Z,57.40
2017-08-07T10:27:22.079Z,57.20
2017-08-07T10:29:50.079Z,57.30
2017-08-07T10:32:17.956Z,57.70
2017-08-07T10:34:47.135Z,58.00
2017-08-07T10:37:16.328Z,57.50
2017-08-07T10:39:44.750Z,57.30
2017-08-07T10:42:14.685Z,57.40
2017-08-07T10:44:43.081Z,57.60
2017-08-07T10:47:13.130Z,57.40
2017-08-07T10:49:41.266Z,57.40
2017-08-07T10:52:09.897Z,58.10
2017-08-07T10:54:39.813Z,58.00
2017-08-07T10:57:08.636Z,58.10
2017-08-07T10:59:37.527Z,58.60
2017-08-07T11:02:05.363Z,58.90
2017-08-07T11:04:33.297Z,58.70
2017-08-07T11:07:02.034Z,58.70
2017-08-07T11:09:32.564Z,57.70
2017-08-07T11:12:01.536Z,57.40
2017-08-07T11:14:30.949Z,58.10
2017-08-07T11:16:59.036Z,58.30
2017-08-07T11:19:29.833Z,58.50
2017-08-07T11:21:58.333Z,58.10
2017-08-07T11:24:29.979Z,58.50
2017-08-07T11:26:57.977Z,58.00
2017-08-07T11:29:28.321Z,57.60
2017-08-07T11:31:56.043Z,57.50
2017-08-07T11:34:24.585Z,57.70
2017-08-07T11:36:54.522Z,57.20
2017-08-07T11:39:23.275Z,57.10
2017-08-07T11:41:52.280Z,57.50
2017-08-07T11:44:21.741Z,58.10
2017-08-07T11:46:49.627Z,58.10
2017-08-07T11:49:19.053Z,58.40
2017-08-07T11:51:48.343Z,58.50
2017-08-07T11:54:16.067Z,58.20
2017-08-07T11:56:44.664Z,58.20
2017-08-07T11:59:12.664Z,58.10
2017-08-07T12:01:41.513Z,58.60
2017-08-07T12:04:10.133Z,58.10
2017-08-07T12:06:38.301Z,58.00
2017-08-07T12:09:06.363Z,58.30
2017-08-07T12:11:35.967Z,59.10
2017-08-07T12:14:07.342Z,59.20
2017-08-07T12:16:35.388Z,59.00
2017-08-07T12:19:06.656Z,58.40
2017-08-07T12:21:35.012Z,58.70
2017-08-07T12:24:05.169Z,58.90
2017-08-07T12:26:36.764Z,58.50
2017-08-07T12:29:08.432Z,58.70
2017-08-07T12:31:35.993Z,59.60
2017-08-07T12:34:03.899Z,58.70
2017-08-07T12:36:31.653Z,58.70
2017-08-07T12:39:00.049Z,58.60
2017-08-07T12:41:29.435Z,58.40
2017-08-07T12:43:57.281Z,58.70
2017-08-07T12:46:25.223Z,58.70
2017-08-07T12:48:53.223Z,58.50
2017-08-07T12:51:23.077Z,57.90
2017-08-07T12:53:51.428Z,57.60
2017-08-07T12:56:19.598Z,57.70
2017-08-07T12:58:47.772Z,57.60
2017-08-07T13:01:16.584Z,57.40
2017-08-07T13:03:45.231Z,57.50
2017-08-07T13:06:13.920Z,57.20
2017-08-07T13:08:41.967Z,56.80
2017-08-07T13:11:13.314Z,57.80
2017-08-07T13:13:42.352Z,58.40
2017-08-07T13:16:10.686Z,58.30
2017-08-07T13:18:40.627Z,57.70
2017-08-07T13:21:09.486Z,57.60
2017-08-07T13:23:37.415Z,57.90
2017-08-07T13:26:05.512Z,57.60
2017-08-07T13:28:33.751Z,56.80
2017-08-07T13:31:01.312Z,56.30
2017-08-07T13:33:29.367Z,56.20
2017-08-07T13:35:57.371Z,56.20
2017-08-07T13:38:25.284Z,56.40
2017-08-07T13:40:54.341Z,56.10
2017-08-07T13:43:22.289Z,56.10
2017-08-07T13:45:51.191Z,57.00
2017-08-07T13:48:19.638Z,57.30
2017-08-07T13:50:47.864Z,57.70
2017-08-07T13:53:16.274Z,57.50
2017-08-07T13:55:47.198Z,57.60
2017-08-07T13:58:15.853Z,57.10
2017-08-07T14:00:43.736Z,56.90
2017-08-07T14:03:11.814Z,56.70
2017-08-07T14:05:40.641Z,56.60
2017-08-07T14:08:09.367Z,56.30
2017-08-07T14:10:37.301Z,56.20
2017-08-07T14:13:05.854Z,56.50
2017-08-07T14:15:34.771Z,56.40
2017-08-07T14:18:04.355Z,56.40
2017-08-07T14:20:32.527Z,56.30
2017-08-07T14:23:00.742Z,56.00
2017-08-07T14:25:29.082Z,56.40
2017-08-07T14:27:58.514Z,56.20
2017-08-07T14:30:28.263Z,55.50
2017-08-07T14:32:56.236Z,55.50
2017-08-07T14:35:24.593Z,55.50
2017-08-07T14:37:52.760Z,55.70
2017-08-07T14:40:21.887Z,55.40
2017-08-07T14:42:50.103Z,55.30
2017-08-07T14:45:18.167Z,55.40
2017-08-07T14:47:47.107Z,55.70
2017-08-07T14:50:17.749Z,55.50
2017-08-07T14:52:46.212Z,55.40
2017-08-07T14:55:14.820Z,54.60
2017-08-07T14:57:44.197Z,54.60
2017-08-07T15:00:12.811Z,55.30
2017-08-07T15:02:40.991Z,54.60
2017-08-07T15:05:08.946Z,54.50
2017-08-07T15:07:37.960Z,54.30
2017-08-07T15:10:06.791Z,54.30
2017-08-07T15:12:35.432Z,54.30
2017-08-07T15:15:04.434Z,53.80
2017-08-07T15:17:32.714Z,53.90
2017-08-07T15:20:01.320Z,54.30
2017-08-07T15:22:31.252Z,54.20
2017-08-07T15:24:59.419Z,54.00
2017-08-07T15:27:27.708Z,53.80
2017-08-07T15:29:55.730Z,54.10
2017-08-07T15:32:24.008Z,54.00
2017-08-07T15:34:51.719Z,53.80
2017-08-07T15:37:19.709Z,53.70
2017-08-07T15:39:48.413Z,53.80
2017-08-07T15:42:16.281Z,53.80
2017-08-07T15:44:44.369Z,53.80
2017-08-07T15:47:12.692Z,54.40
2017-08-07T15:49:41.158Z,54.20
2017-08-07T15:52:10.186Z,54.40
2017-08-07T15:54:39.012Z,54.90
2017-08-07T15:57:07.657Z,54.80
2017-08-07T15:59:35.660Z,54.60
2017-08-07T16:02:03.535Z,55.10
2017-08-07T16:04:34.232Z,54.50
2017-08-07T16:07:03.110Z,54.50
2017-08-07T16:09:30.763Z,54.00
2017-08-07T16:11:59.525Z,54.10
2017-08-07T16:14:27.605Z,54.50
2017-08-07T16:16:56.202Z,54.20
2017-08-07T16:19:25.614Z,54.50
2017-08-07T16:21:54.152Z,54.80
2017-08-07T16:24:22.111Z,54.60
2017-08-07T16:26:50.293Z,54.90
2017-08-07T16:29:18.695Z,55.20
2017-08-07T16:31:47.790Z,55.10
2017-08-07T16:34:15.861Z,55.00
2017-08-07T16:36:43.681Z,54.80
2017-08-07T16:39:12.719Z,54.70
2017-08-07T16:41:40.732Z,54.60
2017-08-07T16:44:09.760Z,54.60
2017-08-07T16:46:37.967Z,54.60
2017-08-07T16:49:06.615Z,54.60
2017-08-07T16:51:35.484Z,54.60
2017-08-07T16:54:04.024Z,54.60
2017-08-07T16:56:32.913Z,54.50
2017-08-07T16:59:01.060Z,54.30
2017-08-07T17:01:29.894Z,54.40
2017-08-07T17:03:58.869Z,54.30
2017-08-07T17:06:27.818Z,54.40
2017-08-07T17:08:55.891Z,54.70
2017-08-07T17:11:23.811Z,54.60
2017-08-07T17:13:53.019Z,54.70
2017-08-07T17:16:20.962Z,54.60
2017-08-07T17:18:48.952Z,54.70
2017-08-07T17:21:18.457Z,54.30
2017-08-07T17:23:47.253Z,54.30
2017-08-07T17:26:15.293Z,54.30
2017-08-07T17:28:43.302Z,54.50
2017-08-07T17:31:13.229Z,54.00
2017-08-07T17:33:42.197Z,54.80
2017-08-07T17:36:10.758Z,54.80
2017-08-07T17:38:39.101Z,54.60
2017-08-07T17:41:07.094Z,54.80
2017-08-07T17:43:35.982Z,54.40
2017-08-07T17:46:04.567Z,54.00
2017-08-07T17:48:34.009Z,53.90
2017-08-07T17:51:03.539Z,53.90
2017-08-07T17:53:31.461Z,53.80
2017-08-07T17:56:00.401Z,53.60
2017-08-07T17:58:28.446Z,53.50
2017-08-07T18:00:57.386Z,53.00
2017-08-07T18:03:25.473Z,53.20
2017-08-07T18:05:54.680Z,53.40
2017-08-07T18:08:23.472Z,53.20
2017-08-07T18:10:52.822Z,52.10
2017-08-07T18:13:20.964Z,52.10
2017-08-07T18:15:49.423Z,52.40
2017-08-07T18:18:18.437Z,52.80
2017-08-07T18:20:46.730Z,52.50
2017-08-07T18:23:14.844Z,52.70
2017-08-07T18:25:42.883Z,52.70
2017-08-07T18:28:11.408Z,52.70
2017-08-07T18:30:39.908Z,52.80
2017-08-07T18:33:09.155Z,52.90
2017-08-07T18:35:37.306Z,52.80
2017-08-07T18:38:05.297Z,52.60
2017-08-07T18:40:33.240Z,52.80
2017-08-07T18:43:02.028Z,52.70
2017-08-07T18:45:30.162Z,52.40
2017-08-07T18:47:58.917Z,52.70
2017-08-07T18:50:26.905Z,52.50
2017-08-07T18:52:55.004Z,52.90
2017-08-07T18:55:23.295Z,52.90
2017-08-07T18:57:52.826Z,52.90
2017-08-07T19:00:21.495Z,53.00
2017-08-07T19:02:50.787Z,53.10
2017-08-07T19:05:19.682Z,53.00
2017-08-07T19:07:48.742Z,53.50
2017-08-07T19:10:18.234Z,52.80
2017-08-07T19:12:46.197Z,53.30
2017-08-07T19:15:14.567Z,53.30
2017-08-07T19:17:42.679Z,53.50
2017-08-07T19:20:10.858Z,53.90
2017-08-07T19:22:39.888Z,54.10
2017-08-07T19:25:09.913Z,55.10
2017-08-07T19:27:39.773Z,55.00
2017-08-07T19:30:08.338Z,55.00
2017-08-07T19:32:36.291Z,56.00
2017-08-07T19:35:04.796Z,55.60
2017-08-07T19:37:33.212Z,55.80
2017-08-07T19:40:02.280Z,56.40
2017-08-07T19:42:31.246Z,56.40
2017-08-07T19:47:33.458Z,57.20
2017-08-07T19:50:02.363Z,57.40
2017-08-07T19:52:30.175Z,57.50
2017-08-07T19:54:59.851Z,57.80
2017-08-07T19:57:28.005Z,57.80
2017-08-07T19:59:57.674Z,58.60
2017-08-07T20:02:27.616Z,59.30
2017-08-07T20:04:56.207Z,59.20
2017-08-07T20:07:24.683Z,59.30
2017-08-07T20:09:52.478Z,59.50
2017-08-07T20:12:20.452Z,59.50
2017-08-07T20:14:49.366Z,59.50
2017-08-07T20:17:17.510Z,59.40
2017-08-07T20:19:45.870Z,59.50
2017-08-07T20:22:13.909Z,59.60
2017-08-07T20:24:42.830Z,59.60
2017-08-07T20:27:10.926Z,59.50
2017-08-07T20:29:39.163Z,59.30
2017-08-07T20:32:07.447Z,59.30
2017-08-07T20:34:35.729Z,59.50
2017-08-07T20:37:03.771Z,59.40
2017-08-07T20:39:32.618Z,59.30
2017-08-07T20:42:00.521Z,59.20
2017-08-07T20:44:28.209Z,59.50
2017-08-07T20:46:57.597Z,59.70
2017-08-07T20:49:28.753Z,60.00
2017-08-07T20:51:56.811Z,59.80
2017-08-07T20:54:24.894Z,59.50
2017-08-07T20:56:53.950Z,59.40
2017-08-07T20:59:24.588Z,59.40
2017-08-07T21:01:52.725Z,60.20
2017-08-07T21:04:21.843Z,59.50
2017-08-07T21:06:49.903Z,59.70
2017-08-07T21:09:18.042Z,59.80
2017-08-07T21:11:47.335Z,59.60
2017-08-07T21:14:16.359Z,59.60
2017-08-07T21:16:44.450Z,59.50
2017-08-07T21:19:12.413Z,59.40
2017-08-07T21:21:40.481Z,59.30
2017-08-07T21:24:08.849Z,59.40
2017-08-07T21:26:36.633Z,59.50
2017-08-07T21:29:05.851Z,59.70
2017-08-07T21:31:34.102Z,59.60
2017-08-07T21:34:02.073Z,59.40
2017-08-07T21:36:31.008Z,59.40
2017-08-07T21:38:59.037Z,59.40
2017-08-07T21:41:27.563Z,59.50
2017-08-07T21:43:55.518Z,59.40
2017-08-07T21:46:23.552Z,59.40
2017-08-07T21:48:51.985Z,59.70
2017-08-07T21:51:19.824Z,59.80
2017-08-07T21:53:47.847Z,60.00
2017-08-07T21:56:16.638Z,60.00
2017-08-07T21:58:45.511Z,59.80
2017-08-07T22:01:13.827Z,59.80
2017-08-07T22:03:42.017Z,59.70
2017-08-07T22:06:10.088Z,59.70
2017-08-07T22:08:38.230Z,59.70
2017-08-07T22:11:07.343Z,59.60
2017-08-07T22:13:34.824Z,59.50
2017-08-07T22:16:03.182Z,60.00
2017-08-07T22:18:31.474Z,59.80
2017-08-07T22:20:59.442Z,60.60
2017-08-07T22:23:27.936Z,60.50
2017-08-07T22:25:56.676Z,60.50
2017-08-07T22:28:24.543Z,61.00
2017-08-07T22:30:57.056Z,60.70
2017-08-07T22:33:25.398Z,60.70
2017-08-07T22:35:54.485Z,61.00
2017-08-07T22:38:21.994Z,61.70
2017-08-07T22:40:50.170Z,61.30
2017-08-07T22:43:17.797Z,61.80
2017-08-07T22:45:46.103Z,62.30
2017-08-07T22:48:13.742Z,62.80
2017-08-07T22:50:43.904Z,63.20
2017-08-07T22:53:12.186Z,63.10
2017-08-07T22:55:40.142Z,63.10
2017-08-07T22:58:08.127Z,63.00
2017-08-07T23:00:36.463Z,62.90
2017-08-07T23:03:04.760Z,63.10
2017-08-07T23:05:33.182Z,63.00
2017-08-07T23:08:02.359Z,63.00
2017-08-07T23:10:32.696Z,62.90
2017-08-07T23:13:01.256Z,63.50
2017-08-07T23:15:29.651Z,63.40
2017-08-07T23:17:59.253Z,63.40
2017-08-07T23:20:28.580Z,63.50
2017-08-07T23:22:56.781Z,63.70
2017-08-07T23:25:25.270Z,63.30
2017-08-07T23:27:56.438Z,63.80
2017-08-07T23:30:24.875Z,63.70
2017-08-07T23:32:52.881Z,63.40
2017-08-07T23:35:21.717Z,63.50
2017-08-07T23:37:49.224Z,63.50
2017-08-07T23:40:18.146Z,63.70
2017-08-07T23:42:47.498Z,63.50
2017-08-07T23:45:16.575Z,63.60
2017-08-07T23:47:45.028Z,63.80
2017-08-07T23:50:13.829Z,63.90
2017-08-07T23:52:41.922Z,63.80
2017-08-07T23:55:10.401Z,63.80
2017-08-07T23:57:38.299Z,63.70
